createdAt,value
2023-03-08T00:02:37.853Z,69.93
2023-03-08T00:05:50.311Z,69.95
2023-03-08T00:09:14.027Z,69.90
2023-03-08T00:13:16.425Z,69.67
2023-03-08T00:20:15.841Z,69.67
2023-03-08T00:23:39.119Z,69.73
2023-03-08T00:27:10.537Z,69.79
2023-03-08T00:30:34.628Z,69.92
2023-03-08T00:33:56.287Z,69.77
2023-03-08T00:37:08.229Z,69.66
2023-03-08T00:40:44.081Z,69.58
2023-03-08T00:44:08.745Z,69.61
2023-03-08T00:47:32.131Z,69.81
2023-03-08T00:51:05.289Z,69.69
2023-03-08T00:54:36.961Z,69.79
2023-03-08T00:58:01.280Z,70.01
2023-03-08T01:01:18.112Z,69.91
2023-03-08T01:04:42.273Z,69.88
2023-03-08T01:08:02.379Z,69.76
2023-03-08T01:11:24.964Z,69.83
2023-03-08T01:14:44.093Z,70.02
2023-03-08T01:18:03.946Z,70.09
2023-03-08T01:21:27.039Z,70.29
2023-03-08T01:24:52.211Z,70.60
2023-03-08T01:28:11.316Z,70.64
2023-03-08T01:31:38.063Z,70.60
2023-03-08T01:34:57.133Z,70.33
2023-03-08T01:38:34.833Z,70.52
2023-03-08T01:41:48.883Z,70.63
2023-03-08T01:45:17.364Z,70.40
2023-03-08T01:48:41.679Z,70.28
2023-03-08T01:52:23.768Z,70.60
2023-03-08T01:55:56.163Z,70.69
2023-03-08T01:59:19.109Z,70.50
2023-03-08T02:02:41.187Z,70.43
2023-03-08T02:09:06.793Z,70.74
2023-03-08T02:12:24.019Z,70.89
2023-03-08T02:15:43.726Z,71.02
2023-03-08T02:19:17.414Z,71.16
2023-03-08T02:22:39.760Z,71.23
2023-03-08T02:25:57.599Z,71.12
2023-03-08T02:29:17.651Z,71.05
2023-03-08T02:32:34.139Z,71.12
2023-03-08T02:35:55.752Z,71.12
2023-03-08T02:39:09.868Z,71.11
2023-03-08T02:42:31.482Z,71.16
2023-03-08T02:46:01.430Z,70.96
2023-03-08T02:49:27.156Z,70.97
2023-03-08T02:52:48.201Z,71.07
2023-03-08T02:56:05.455Z,71.19
2023-03-08T02:59:18.310Z,71.32
2023-03-08T03:02:36.150Z,71.39
2023-03-08T03:06:11.792Z,71.44
2023-03-08T03:09:40.468Z,71.37
2023-03-08T03:13:05.803Z,71.33
2023-03-08T03:16:28.129Z,71.23
2023-03-08T03:19:53.248Z,71.05
2023-03-08T03:23:15.240Z,71.21
2023-03-08T03:26:38.340Z,71.33
2023-03-08T03:30:02.421Z,71.40
2023-03-08T03:36:13.861Z,71.45
2023-03-08T03:39:33.745Z,71.47
2023-03-08T03:42:58.866Z,71.51
2023-03-08T03:46:32.584Z,71.58
2023-03-08T03:49:57.271Z,71.65
2023-03-08T03:53:21.678Z,71.72
2023-03-08T03:56:48.801Z,71.65
2023-03-08T04:00:17.924Z,71.68
2023-03-08T04:03:51.443Z,71.68
2023-03-08T04:07:13.375Z,71.71
2023-03-08T04:10:45.336Z,71.72
2023-03-08T04:14:12.205Z,71.69
2023-03-08T04:17:28.154Z,71.50
2023-03-08T04:21:27.986Z,71.29
2023-03-08T04:24:57.813Z,71.31
2023-03-08T04:28:40.809Z,71.50
2023-03-08T04:35:41.751Z,72.02
2023-03-08T04:39:15.541Z,72.13
2023-03-08T04:42:36.660Z,72.22
2023-03-08T04:45:51.536Z,72.34
2023-03-08T04:53:05.714Z,72.34
2023-03-08T04:56:31.192Z,72.20
2023-03-08T05:13:59.729Z,72.08
2023-03-08T05:17:28.790Z,72.19
2023-03-08T05:21:02.939Z,72.17
2023-03-08T05:24:31.326Z,72.25
2023-03-08T05:28:10.154Z,72.16
2023-03-08T05:31:52.155Z,71.93
2023-03-08T05:35:35.373Z,71.97
2023-03-08T05:39:44.747Z,71.90
2023-03-08T05:43:00.350Z,72.08
2023-03-08T05:46:42.659Z,72.13
2023-03-08T05:53:37.167Z,71.78
2023-03-08T06:19:50.567Z,72.04
2023-03-08T06:23:38.390Z,72.09
2023-03-08T06:30:52.579Z,72.18
2023-03-08T06:33:57.542Z,72.26
2023-03-08T06:37:15.719Z,72.24
2023-03-08T06:40:53.368Z,72.32
2023-03-08T06:44:11.661Z,72.29
2023-03-08T06:47:42.261Z,72.38
2023-03-08T06:57:55.025Z,72.46
2023-03-08T07:01:16.699Z,72.24
2023-03-08T07:04:48.023Z,71.95
2023-03-08T07:22:09.825Z,72.67
2023-03-08T07:30:16.375Z,72.94
2023-03-08T07:37:42.685Z,72.94
2023-03-08T07:45:19.938Z,72.99
2023-03-08T07:48:54.128Z,72.82
2023-03-08T08:18:46.367Z,73.26
2023-03-08T08:30:29.017Z,73.48
2023-03-08T08:41:39.879Z,72.85
2023-03-08T08:44:52.931Z,72.88
2023-03-08T08:48:24.428Z,72.96
2023-03-08T08:51:51.636Z,72.98
2023-03-08T09:02:08.029Z,73.10
2023-03-08T09:10:12.966Z,73.16
2023-03-08T09:26:58.080Z,73.45
2023-03-08T09:30:23.071Z,73.39
2023-03-08T09:33:49.594Z,73.29
2023-03-08T09:40:36.020Z,73.43
2023-03-08T09:48:01.262Z,73.57
2023-03-08T09:52:05.808Z,73.75
2023-03-08T10:04:05.551Z,74.10
2023-03-08T10:08:16.456Z,74.28
2023-03-08T10:12:01.028Z,74.25
2023-03-08T10:15:32.368Z,74.53
2023-03-08T10:23:14.946Z,74.57
2023-03-08T10:26:39.412Z,74.53
2023-03-08T10:30:15.291Z,74.42
2023-03-08T10:33:54.028Z,74.49
2023-03-08T10:37:36.104Z,74.56
2023-03-08T10:41:05.232Z,74.62
2023-03-08T10:44:27.864Z,74.76
2023-03-08T10:48:06.524Z,74.67
2023-03-08T10:51:49.760Z,74.44
2023-03-08T10:55:20.670Z,74.42
2023-03-08T10:59:32.714Z,74.35
2023-03-08T11:03:20.748Z,74.09
2023-03-08T11:10:57.068Z,74.05
2023-03-08T11:14:34.155Z,74.03
2023-03-08T11:18:46.970Z,73.94
2023-03-08T11:22:44.924Z,74.00
2023-03-08T11:26:49.805Z,74.11
2023-03-08T11:45:45.894Z,74.15
2023-03-08T11:49:41.867Z,74.16
2023-03-08T11:53:47.534Z,74.08
2023-03-08T11:57:19.350Z,73.94
2023-03-08T12:01:01.297Z,73.87
2023-03-08T12:05:06.054Z,73.97
2023-03-08T12:08:19.204Z,73.94
2023-03-08T12:12:19.097Z,74.07
2023-03-08T12:19:32.739Z,73.84
2023-03-08T12:23:13.937Z,73.87
2023-03-08T12:26:51.875Z,73.86
2023-03-08T12:30:09.893Z,73.69
2023-03-08T12:33:35.885Z,73.85
2023-03-08T12:37:05.569Z,73.90
2023-03-08T12:41:08.904Z,74.02
2023-03-08T12:45:02.283Z,74.04
2023-03-08T12:48:43.158Z,74.04
2023-03-08T12:55:48.237Z,74.05
2023-03-08T12:59:16.864Z,73.98
2023-03-08T13:02:52.005Z,73.91
2023-03-08T13:06:13.539Z,73.91
2023-03-08T13:09:52.271Z,73.97
2023-03-08T13:13:38.749Z,74.02
2023-03-08T13:17:05.698Z,73.83
2023-03-08T13:20:46.518Z,73.76
2023-03-08T13:24:15.514Z,73.82
2023-03-08T13:28:15.379Z,73.88
2023-03-08T13:31:38.086Z,74.00
2023-03-08T13:35:05.650Z,74.03
2023-03-08T13:38:23.518Z,74.01
2023-03-08T13:41:44.256Z,74.02
2023-03-08T13:45:11.044Z,74.08
2023-03-08T13:48:52.975Z,74.21
2023-03-08T13:52:16.850Z,74.20
2023-03-08T13:56:18.123Z,74.24
2023-03-08T13:59:50.185Z,74.23
2023-03-08T14:03:26.952Z,74.23
2023-03-08T14:25:08.516Z,74.01
2023-03-08T14:28:59.690Z,74.11
2023-03-08T14:32:44.006Z,74.22
2023-03-08T14:36:35.790Z,74.22
2023-03-08T14:39:53.185Z,74.29
2023-03-08T14:46:46.220Z,74.32
2023-03-08T14:53:58.941Z,74.21
2023-03-08T14:57:21.680Z,74.05
2023-03-08T15:01:03.909Z,74.13
2023-03-08T15:04:27.240Z,74.29
2023-03-08T15:08:01.686Z,74.44
2023-03-08T15:11:24.187Z,74.51
2023-03-08T15:14:40.042Z,74.57
2023-03-08T15:17:59.012Z,74.49
2023-03-08T15:21:17.663Z,74.45
2023-03-08T15:24:31.923Z,74.50
2023-03-08T15:27:50.017Z,74.52
2023-03-08T15:31:09.284Z,74.53
2023-03-08T15:34:32.962Z,74.55
2023-03-08T15:37:46.153Z,74.60
2023-03-08T15:41:15.277Z,74.59
2023-03-08T15:44:35.856Z,74.61
2023-03-08T15:47:59.836Z,74.67
2023-03-08T15:51:13.883Z,74.72
2023-03-08T15:54:28.971Z,74.77
2023-03-08T16:01:17.125Z,74.74
2023-03-08T16:04:41.518Z,74.78
2023-03-08T16:08:06.882Z,74.82
2023-03-08T16:11:38.210Z,74.85
2023-03-08T16:15:05.500Z,74.86
2023-03-08T16:18:25.262Z,74.88
2023-03-08T16:22:06.449Z,74.91
2023-03-08T16:25:38.400Z,74.91
2023-03-08T16:28:52.332Z,74.93
2023-03-08T16:32:20.221Z,74.95
2023-03-08T16:35:46.718Z,74.93
2023-03-08T16:39:10.959Z,74.84
2023-03-08T16:42:52.561Z,74.79
2023-03-08T16:46:27.949Z,74.77
2023-03-08T16:50:02.126Z,74.76
2023-03-08T16:53:19.462Z,74.80
2023-03-08T16:56:55.521Z,74.82
2023-03-08T17:00:20.833Z,74.87
2023-03-08T17:03:41.342Z,74.82
2023-03-08T17:07:12.052Z,74.80
2023-03-08T17:10:29.686Z,74.83
2023-03-08T17:14:00.875Z,74.84
2023-03-08T17:17:21.805Z,74.92
2023-03-08T17:20:55.302Z,74.97
2023-03-08T17:24:20.569Z,75.06
2023-03-08T17:27:47.240Z,75.08
2023-03-08T17:31:19.529Z,75.10
2023-03-08T17:38:14.754Z,75.09
2023-03-08T17:41:38.819Z,75.10
2023-03-08T17:45:16.955Z,75.09
2023-03-08T17:48:34.798Z,75.07
2023-03-08T17:51:57.550Z,75.10
2023-03-08T17:55:25.943Z,75.10
2023-03-08T17:58:42.363Z,75.09
2023-03-08T18:02:04.734Z,75.11
2023-03-08T18:05:27.551Z,75.09
2023-03-08T18:09:12.104Z,75.09
2023-03-08T18:12:24.219Z,75.05
2023-03-08T18:15:56.732Z,75.02
2023-03-08T18:19:15.152Z,74.97
2023-03-08T18:22:41.267Z,74.94
2023-03-08T18:26:02.390Z,74.89
2023-03-08T18:29:24.236Z,74.89
2023-03-08T18:32:48.428Z,74.87
2023-03-08T18:36:10.979Z,74.84
2023-03-08T18:39:31.485Z,74.84
2023-03-08T18:42:48.885Z,74.80
2023-03-08T18:46:24.882Z,74.77
2023-03-08T18:49:45.980Z,74.71
2023-03-08T18:53:10.177Z,74.64
2023-03-08T19:00:24.532Z,74.60
2023-03-08T19:03:41.836Z,74.54
2023-03-08T19:07:09.929Z,74.48
2023-03-08T19:10:45.318Z,74.44
2023-03-08T19:14:25.550Z,74.38
2023-03-08T19:17:57.752Z,74.27
2023-03-08T19:21:30.375Z,74.27
2023-03-08T19:24:55.463Z,74.26
2023-03-08T19:27:58.554Z,74.16
2023-03-08T19:31:37.332Z,73.99
2023-03-08T19:49:18.973Z,73.52
2023-03-08T19:52:42.037Z,73.44
2023-03-08T19:56:39.819Z,73.31
2023-03-08T20:04:16.417Z,73.53
2023-03-08T20:07:33.447Z,73.65
2023-03-08T20:11:01.313Z,73.83
2023-03-08T20:21:24.947Z,74.01
2023-03-08T20:25:07.774Z,74.03
2023-03-08T20:32:38.841Z,74.05
2023-03-08T20:36:01.754Z,74.05
2023-03-08T20:39:30.794Z,73.94
2023-03-08T20:42:52.425Z,73.84
2023-03-08T20:46:23.217Z,73.74
2023-03-08T20:50:27.615Z,73.63
2023-03-08T20:53:58.440Z,73.64
2023-03-08T20:57:27.955Z,73.65
2023-03-08T21:00:47.742Z,73.67
2023-03-08T21:04:16.437Z,73.69
2023-03-08T21:07:43.495Z,73.72
2023-03-08T21:11:07.383Z,73.52
2023-03-08T21:14:34.015Z,73.43
2023-03-08T21:18:09.266Z,73.45
2023-03-08T21:24:57.406Z,73.53
2023-03-08T21:28:32.685Z,73.64
2023-03-08T21:32:08.581Z,73.70
2023-03-08T21:35:36.991Z,73.63
2023-03-08T21:39:11.253Z,73.72
2023-03-08T21:42:55.413Z,73.77
2023-03-08T21:46:23.741Z,73.81
2023-03-08T21:50:01.196Z,73.85
2023-03-08T21:53:24.867Z,73.82
2023-03-08T21:56:49.976Z,73.82
2023-03-08T22:03:43.781Z,73.76
2023-03-08T22:07:05.521Z,73.72
2023-03-08T22:10:26.906Z,73.63
2023-03-08T22:14:36.489Z,73.58
2023-03-08T22:18:04.669Z,73.59
2023-03-08T22:21:28.445Z,73.54
2023-03-08T22:25:00.518Z,73.67
2023-03-08T22:28:33.517Z,73.73
2023-03-08T22:31:59.243Z,73.80
2023-03-08T22:39:30.431Z,73.66
2023-03-08T22:43:04.244Z,73.65
2023-03-08T22:47:13.375Z,73.64
2023-03-08T22:50:38.893Z,73.44
2023-03-08T22:53:59.709Z,73.24
2023-03-08T22:57:35.086Z,73.27
2023-03-08T23:01:10.207Z,73.24
2023-03-08T23:04:33.095Z,73.19
2023-03-08T23:07:59.806Z,73.17
2023-03-08T23:11:36.597Z,72.99
2023-03-08T23:15:40.164Z,72.97
2023-03-08T23:19:04.624Z,72.97
2023-03-08T23:26:39.979Z,72.95
2023-03-08T23:30:27.007Z,73.01
2023-03-08T23:33:50.370Z,73.09
2023-03-08T23:41:53.903Z,73.16
2023-03-08T23:45:24.410Z,73.25
2023-03-08T23:48:43.010Z,73.44
